Milford, Delaware
Current Conditions -  °F | °C
As of 11:58 AM on Thursday 30 Oct 2014 (Local Time) from KDOV Reporting Station
Overcast Overcast  
Wind Chill: 54°   Ceiling: 7000
Heat Index: 54°   Visibility: 10mi
Dew Point: 43°   Wind: 7mph
Humidity: 65%   Direction: 330°NNW
Pressure: 30.02"   Gusts: NA
Location:  38.93°N, 75.43°W
Report Text: KDOV 301558Z AUTO 33006KT 10SM OVC070 12/06 A3002 RMK AO2 SLP169 T01240059
Loading
Personal Weather Stations






























Interactive Weather Map
Tropical Storm Tracking
New forecast layout! Learn more

10-Day Weather Forecast

Advertisements
Track Severe Weather on mobile